Hatsu Ethic — VQFS4 — position and weather

sailwx.info

Track history (hours):
 
Tides and Currents Weather Stations Pressure Air Temp Water Temp Dewpoint Dewpoint Depression Visibility Wind Speed Wind Dir Waves Ship Positions

Hatsu Ethic

Last reported at 2018-Jan-12 09:23 UTC. Time now 2018-Jan-18 21:58 UTC.
Position N 38°32' W 123°59'.

Type: Ship (hazmat cat D). MMSI: 235603000.

Date/timePositionNaut miles runAvg speedWind from/ knotsBaromVisibWave heightAir tempDewpointWater temp
2018-Jan-12 09:23N 38°32' W 123°59'615.8
2018-Jan-12 09:00N 38°28' W 123°53'816.0
2018-Jan-12 08:30N 38°23' W 123°45'815.8
2018-Jan-12 08:00N 38°18' W 123°37'815.9
2018-Jan-12 07:30N 38°14' W 123°28'816.0
2018-Jan-12 07:00N 38°09' W 123°20'816.1
2018-Jan-12 06:30N 38°03' W 123°14'815.8
2018-Jan-12 06:00N 37°57' W 123°07'815.4
2018-Jan-12 05:30N 37°54' W 122°58'815.4
2018-Jan-12 05:00N 37°50' W 122°50'714.1
2018-Jan-12 04:31N 37°46' W 122°42'611.7
2018-Jan-12 04:01N 37°47' W 122°34'713.4
2018-Jan-12 03:30N 37°50' W 122°27'510.5
2018-Jan-12 03:00N 37°48' W 122°21'1 1.3
2018-Jan-12 02:31N 37°49' W 122°20'0 0.0
2018-Jan-12 01:58N 37°49' W 122°20'0 0.0
2018-Jan-12 01:28N 37°49' W 122°20'0 0.0
2018-Jan-12 00:58N 37°49' W 122°20'0 0.0
2018-Jan-12 00:28N 37°49' W 122°20'0 0.0
2018-Jan-11 23:59N 37°49' W 122°20'0 0.0
2018-Jan-11 23:28N 37°49' W 122°20'0 0.0
2018-Jan-11 22:58N 37°49' W 122°20'0 0.0
2018-Jan-11 22:28N 37°49' W 122°20'0 0.0
2018-Jan-11 21:58N 37°49' W 122°20'0 0.0
2018-Jan-11 21:28N 37°49' W 122°20'0 0.0
2018-Jan-11 20:59N 37°49' W 122°20'0 0.0
2018-Jan-11 20:29N 37°49' W 122°20'0 0.0
2018-Jan-11 19:58N 37°49' W 122°20'0 0.0
2018-Jan-11 19:28N 37°49' W 122°20'0 0.0
2018-Jan-11 18:58N 37°49' W 122°20'0 0.0
2018-Jan-11 18:28N 37°49' W 122°20'0 0.0
2018-Jan-11 17:58N 37°49' W 122°20'0 0.0
2018-Jan-11 17:28N 37°49' W 122°20'0 0.0
2018-Jan-11 16:59N 37°49' W 122°20'0 0.0
2018-Jan-11 16:29N 37°49' W 122°20'0 0.0
2018-Jan-11 15:58N 37°49' W 122°20'0 0.0
2018-Jan-11 15:28N 37°49' W 122°20'0 0.0
2018-Jan-11 14:58N 37°49' W 122°20'0 0.0
2018-Jan-11 14:28N 37°49' W 122°20'0 0.0
2018-Jan-11 13:55N 37°49' W 122°20'0 0.0
2018-Jan-11 13:28N 37°49' W 122°20'0 0.0
2018-Jan-11 12:58N 37°49' W 122°20'0 0.0
2018-Jan-11 12:28N 37°49' W 122°20'0 0.0
2018-Jan-11 11:59N 37°49' W 122°20'0 0.0
2018-Jan-11 11:28N 37°49' W 122°20'0 0.0
2018-Jan-11 10:59N 37°49' W 122°20'0 0.0
2018-Jan-11 10:28N 37°49' W 122°20'0 0.0
2018-Jan-11 09:58N 37°49' W 122°20'0 0.0
2018-Jan-11 09:28N 37°49' W 122°20'0 0.0
2018-Jan-11 08:58N 37°49' W 122°20'0 0.0
2018-Jan-11 08:28N 37°49' W 122°20'0 0.0
2018-Jan-11 07:58N 37°49' W 122°20'0 0.0
2018-Jan-11 07:28N 37°49' W 122°20'0 0.0
2018-Jan-11 06:58N 37°49' W 122°20'0 0.0
2018-Jan-11 06:29N 37°49' W 122°20'0 0.0
2018-Jan-11 05:59N 37°49' W 122°20'0 0.0
2018-Jan-11 05:28N 37°49' W 122°20'0 0.0
2018-Jan-11 04:58N 37°49' W 122°20'0 0.0
2018-Jan-11 04:28N 37°49' W 122°20'0 0.0
2018-Jan-11 03:58N 37°49' W 122°20'0 0.0
2018-Jan-11 03:28N 37°49' W 122°20'0 0.0
2018-Jan-11 02:58N 37°49' W 122°20'0 0.0
2018-Jan-11 02:28N 37°49' W 122°20'0 0.0
2018-Jan-11 01:59N 37°49' W 122°20'0 0.0
2018-Jan-11 01:28N 37°49' W 122°20'0 0.0
2018-Jan-11 00:58N 37°49' W 122°20'0 0.0
2018-Jan-11 00:28N 37°49' W 122°20'0 0.0
2018-Jan-11 00:01N 37°49' W 122°20'1 1.4
2018-Jan-10 23:30N 37°49' W 122°19'2 3.2
2018-Jan-10 23:00N 37°48' W 122°21'5 9.8
2018-Jan-10 22:30N 37°49' W 122°27'713.6
2018-Jan-10 22:01N 37°47' W 122°35'510.4
2018-Jan-10 21:30N 37°43' W 122°41'4 8.7
2018-Jan-10 21:00N 37°39' W 122°40'3 5.5
2018-Jan-10 20:30N 37°36' W 122°40'4 7.2
2018-Jan-10 20:00N 37°33' W 122°40'5 9.5
2018-Jan-10 19:30N 37°28' W 122°40'5 9.4
2018-Jan-10 19:00N 37°23' W 122°40'5 9.3
2018-Jan-10 18:30N 37°19' W 122°40'5 9.2
2018-Jan-10 18:00N 37°14' W 122°39'5 9.2
2018-Jan-10 17:30N 37°09' W 122°39'5 9.6
2018-Jan-10 17:00N 37°05' W 122°38'612.5
2018-Jan-10 16:30N 36°59' W 122°35'612.4
2018-Jan-10 16:00N 36°53' W 122°32'712.2
2018-Jan-10 15:25N 36°47' W 122°29'511.9
2018-Jan-10 15:00N 36°42' W 122°27'611.6
2018-Jan-10 14:30N 36°37' W 122°24'611.6
2018-Jan-10 14:00N 36°31' W 122°21'611.2
2018-Jan-10 13:30N 36°26' W 122°18'610.7
2018-Jan-10 12:59N 36°21' W 122°16'511.4
2018-Jan-10 12:30N 36°16' W 122°13'611.9
2018-Jan-10 12:00N 36°10' W 122°11'612.0
2018-Jan-10 11:30N 36°05' W 122°08'612.6
2018-Jan-10 11:00N 35°59' W 122°04'612.7
2018-Jan-10 10:30N 35°54' W 122°00'612.1
2018-Jan-10 10:00N 35°48' W 121°57'612.1
2018-Jan-10 09:30N 35°43' W 121°54'612.3
2018-Jan-10 09:00N 35°37' W 121°51'1211.2
2018-Jan-10 07:55N 35°26' W 121°44'511.1
2018-Jan-10 07:30N 35°22' W 121°41'611.4
2018-Jan-10 07:00N 35°17' W 121°38'611.4
2018-Jan-10 06:30N 35°12' W 121°35'511.0
2018-Jan-10 06:00N 35°07' W 121°32'611.5
2018-Jan-10 05:30N 35°02' W 121°29'611.3
2018-Jan-10 05:00N 34°57' W 121°26'611.6
2018-Jan-10 04:29N 34°52' W 121°22'611.6
2018-Jan-10 04:00N 34°47' W 121°20'612.0
2018-Jan-10 03:30N 34°41' W 121°17'611.9
2018-Jan-10 03:00N 34°36' W 121°13'611.6
2018-Jan-10 02:30N 34°31' W 121°10'611.3
2018-Jan-10 02:00N 34°29' W 121°03'510.8
2018-Jan-10 01:30N 34°27' W 120°57'510.7
2018-Jan-10 01:00N 34°26' W 120°51'610.4
2018-Jan-10 00:28N 34°24' W 120°44'511.0
2018-Jan-10 00:00N 34°23' W 120°38'510.7
2018-Jan-09 23:30N 34°22' W 120°32'712.3
2018-Jan-09 22:55N 34°20' W 120°24'613.1
2018-Jan-09 22:28N 34°18' W 120°17'813.6
2018-Jan-09 21:52N 34°16' W 120°07'513.6
2018-Jan-09 21:29N 34°15' W 120°01'713.4
2018-Jan-09 20:59N 34°13' W 119°53'713.1
2018-Jan-09 20:28N 34°11' W 119°46'613.1
2018-Jan-09 20:00N 34°10' W 119°38'711.6
2018-Jan-09 19:24N 34°08' W 119°30'511.5
2018-Jan-09 18:58N 34°07' W 119°24'611.5
2018-Jan-09 18:30N 34°05' W 119°18'611.3
2018-Jan-09 18:00N 34°02' W 119°12'611.5
2018-Jan-09 17:28N 33°59' W 119°06'511.5
2018-Jan-09 17:00N 33°57' W 118°60'611.5
2018-Jan-09 16:30N 33°54' W 118°54'611.6
2018-Jan-09 16:00N 33°51' W 118°48'511.2
2018-Jan-09 15:30N 33°49' W 118°42'611.0
2018-Jan-09 14:59N 33°46' W 118°36'511.2
2018-Jan-09 14:30N 33°43' W 118°30'611.5
2018-Jan-09 13:58N 33°40' W 118°24'8 0.2
2018-Jan-08 03:07N 33°45' W 118°16'5 0.3
2018-Jan-07 12:49N 33°41' W 118°14'3 9.2
2018-Jan-07 12:30N 33°38' W 118°15'3 6.9
2018-Jan-07 12:00N 33°36' W 118°18'4 8.0
2018-Jan-07 11:30N 33°36' W 118°23'5 9.7
2018-Jan-07 11:00N 33°36' W 118°29'510.1
2018-Jan-07 10:30N 33°36' W 118°35'510.0
2018-Jan-07 10:00N 33°37' W 118°41'5 9.9
2018-Jan-07 09:30N 33°37' W 118°47'510.0
2018-Jan-07 09:00N 33°37' W 118°53'5 9.9
2018-Jan-07 08:30N 33°37' W 118°59'510.1
2018-Jan-07 08:00N 33°37' W 119°05'510.4
2018-Jan-07 07:29N 33°37' W 119°12'510.2
2018-Jan-07 07:00N 33°37' W 119°17'510.2
2018-Jan-07 06:30N 33°37' W 119°24'611.3
2018-Jan-07 06:00N 33°37' W 119°30'714.6
2018-Jan-07 05:30N 33°37' W 119°39'815.7
2018-Jan-07 05:01N 33°37' W 119°48'815.9
2018-Jan-07 04:29N 33°37' W 119°58'816.4
2018-Jan-07 04:00N 33°37' W 120°08'816.1
2018-Jan-07 03:31N 33°37' W 120°17'815.5
2018-Jan-07 03:00N 33°37' W 120°27'611.9
2018-Jan-07 02:30N 33°37' W 120°34'714.1
2018-Jan-07 02:00N 33°37' W 120°43'816.4
2018-Jan-07 01:31N 33°37' W 120°52'1716.6
2018-Jan-07 00:31N 33°37' W 121°12'816.2
2018-Jan-07 00:00N 33°37' W 121°22'816.1
2018-Jan-06 23:30N 33°37' W 121°32'816.5
2018-Jan-06 23:00N 33°37' W 121°42'5117.0
2018-Jan-06 20:02N 33°38' W 122°42'1516.9
2018-Jan-06 19:09N 33°38' W 123°00'317.0
2018-Jan-06 19:00N 33°38' W 123°03'816.6
2018-Jan-06 18:29N 33°38' W 123°14'1616.8
2018-Jan-06 17:32N 33°38' W 123°33'55118.6
2018-Jan-05 12:00N 38°00' W 133°30'   300 / 201020.010.8 11.0 9.2
Track history (hours):
 
Tides and Currents Weather Stations Pressure Air Temp Water Temp Dewpoint Dewpoint Depression Visibility Wind Speed Wind Dir Waves Ship Positions

Hatsu Ethic

Last reported at 2018-Jan-12 09:23 UTC. Time now 2018-Jan-18 21:58 UTC.
Position N 38°32' W 123°59'.

Type: Ship (hazmat cat D). MMSI: 235603000.

Date/timePositionNaut miles runAvg speedWind from/ knotsBaromVisibWave heightAir tempDewpointWater temp
2018-Jan-12 09:23N 38°32' W 123°59'615.8
2018-Jan-12 09:00N 38°28' W 123°53'816.0
2018-Jan-12 08:30N 38°23' W 123°45'815.8
2018-Jan-12 08:00N 38°18' W 123°37'815.9
2018-Jan-12 07:30N 38°14' W 123°28'816.0
2018-Jan-12 07:00N 38°09' W 123°20'816.1
2018-Jan-12 06:30N 38°03' W 123°14'815.8
2018-Jan-12 06:00N 37°57' W 123°07'815.4
2018-Jan-12 05:30N 37°54' W 122°58'815.4
2018-Jan-12 05:00N 37°50' W 122°50'714.1
2018-Jan-12 04:31N 37°46' W 122°42'611.7
2018-Jan-12 04:01N 37°47' W 122°34'713.4
2018-Jan-12 03:30N 37°50' W 122°27'510.5
2018-Jan-12 03:00N 37°48' W 122°21'1 1.3
2018-Jan-12 02:31N 37°49' W 122°20'0 0.0
2018-Jan-12 01:58N 37°49' W 122°20'0 0.0
2018-Jan-12 01:28N 37°49' W 122°20'0 0.0
2018-Jan-12 00:58N 37°49' W 122°20'0 0.0
2018-Jan-12 00:28N 37°49' W 122°20'0 0.0
2018-Jan-11 23:59N 37°49' W 122°20'0 0.0
2018-Jan-11 23:28N 37°49' W 122°20'0 0.0
2018-Jan-11 22:58N 37°49' W 122°20'0 0.0
2018-Jan-11 22:28N 37°49' W 122°20'0 0.0
2018-Jan-11 21:58N 37°49' W 122°20'0 0.0
2018-Jan-11 21:28N 37°49' W 122°20'0 0.0
2018-Jan-11 20:59N 37°49' W 122°20'0 0.0
2018-Jan-11 20:29N 37°49' W 122°20'0 0.0
2018-Jan-11 19:58N 37°49' W 122°20'0 0.0
2018-Jan-11 19:28N 37°49' W 122°20'0 0.0
2018-Jan-11 18:58N 37°49' W 122°20'0 0.0
2018-Jan-11 18:28N 37°49' W 122°20'0 0.0
2018-Jan-11 17:58N 37°49' W 122°20'0 0.0
2018-Jan-11 17:28N 37°49' W 122°20'0 0.0
2018-Jan-11 16:59N 37°49' W 122°20'0 0.0
2018-Jan-11 16:29N 37°49' W 122°20'0 0.0
2018-Jan-11 15:58N 37°49' W 122°20'0 0.0
2018-Jan-11 15:28N 37°49' W 122°20'0 0.0
2018-Jan-11 14:58N 37°49' W 122°20'0 0.0
2018-Jan-11 14:28N 37°49' W 122°20'0 0.0
2018-Jan-11 13:55N 37°49' W 122°20'0 0.0
2018-Jan-11 13:28N 37°49' W 122°20'0 0.0
2018-Jan-11 12:58N 37°49' W 122°20'0 0.0
2018-Jan-11 12:28N 37°49' W 122°20'0 0.0
2018-Jan-11 11:59N 37°49' W 122°20'0 0.0
2018-Jan-11 11:28N 37°49' W 122°20'0 0.0
2018-Jan-11 10:59N 37°49' W 122°20'0 0.0
2018-Jan-11 10:28N 37°49' W 122°20'0 0.0
2018-Jan-11 09:58N 37°49' W 122°20'0 0.0
2018-Jan-11 09:28N 37°49' W 122°20'0 0.0
2018-Jan-11 08:58N 37°49' W 122°20'0 0.0
2018-Jan-11 08:28N 37°49' W 122°20'0 0.0
2018-Jan-11 07:58N 37°49' W 122°20'0 0.0
2018-Jan-11 07:28N 37°49' W 122°20'0 0.0
2018-Jan-11 06:58N 37°49' W 122°20'0 0.0
2018-Jan-11 06:29N 37°49' W 122°20'0 0.0
2018-Jan-11 05:59N 37°49' W 122°20'0 0.0
2018-Jan-11 05:28N 37°49' W 122°20'0 0.0
2018-Jan-11 04:58N 37°49' W 122°20'0 0.0
2018-Jan-11 04:28N 37°49' W 122°20'0 0.0
2018-Jan-11 03:58N 37°49' W 122°20'0 0.0
2018-Jan-11 03:28N 37°49' W 122°20'0 0.0
2018-Jan-11 02:58N 37°49' W 122°20'0 0.0
2018-Jan-11 02:28N 37°49' W 122°20'0 0.0
2018-Jan-11 01:59N 37°49' W 122°20'0 0.0
2018-Jan-11 01:28N 37°49' W 122°20'0 0.0
2018-Jan-11 00:58N 37°49' W 122°20'0 0.0
2018-Jan-11 00:28N 37°49' W 122°20'0 0.0
2018-Jan-11 00:01N 37°49' W 122°20'1 1.4
2018-Jan-10 23:30N 37°49' W 122°19'2 3.2
2018-Jan-10 23:00N 37°48' W 122°21'5 9.8
2018-Jan-10 22:30N 37°49' W 122°27'713.6
2018-Jan-10 22:01N 37°47' W 122°35'510.4
2018-Jan-10 21:30N 37°43' W 122°41'4 8.7
2018-Jan-10 21:00N 37°39' W 122°40'3 5.5
2018-Jan-10 20:30N 37°36' W 122°40'4 7.2
2018-Jan-10 20:00N 37°33' W 122°40'5 9.5
2018-Jan-10 19:30N 37°28' W 122°40'5 9.4
2018-Jan-10 19:00N 37°23' W 122°40'5 9.3
2018-Jan-10 18:30N 37°19' W 122°40'5 9.2
2018-Jan-10 18:00N 37°14' W 122°39'5 9.2
2018-Jan-10 17:30N 37°09' W 122°39'5 9.6
2018-Jan-10 17:00N 37°05' W 122°38'612.5
2018-Jan-10 16:30N 36°59' W 122°35'612.4
2018-Jan-10 16:00N 36°53' W 122°32'712.2
2018-Jan-10 15:25N 36°47' W 122°29'511.9
2018-Jan-10 15:00N 36°42' W 122°27'611.6
2018-Jan-10 14:30N 36°37' W 122°24'611.6
2018-Jan-10 14:00N 36°31' W 122°21'611.2
2018-Jan-10 13:30N 36°26' W 122°18'610.7
2018-Jan-10 12:59N 36°21' W 122°16'511.4
2018-Jan-10 12:30N 36°16' W 122°13'611.9
2018-Jan-10 12:00N 36°10' W 122°11'612.0
2018-Jan-10 11:30N 36°05' W 122°08'612.6
2018-Jan-10 11:00N 35°59' W 122°04'612.7
2018-Jan-10 10:30N 35°54' W 122°00'612.1
2018-Jan-10 10:00N 35°48' W 121°57'612.1
2018-Jan-10 09:30N 35°43' W 121°54'612.3
2018-Jan-10 09:00N 35°37' W 121°51'1211.2
2018-Jan-10 07:55N 35°26' W 121°44'511.1
2018-Jan-10 07:30N 35°22' W 121°41'611.4
2018-Jan-10 07:00N 35°17' W 121°38'611.4
2018-Jan-10 06:30N 35°12' W 121°35'511.0
2018-Jan-10 06:00N 35°07' W 121°32'611.5
2018-Jan-10 05:30N 35°02' W 121°29'611.3
2018-Jan-10 05:00N 34°57' W 121°26'611.6
2018-Jan-10 04:29N 34°52' W 121°22'611.6
2018-Jan-10 04:00N 34°47' W 121°20'612.0
2018-Jan-10 03:30N 34°41' W 121°17'611.9
2018-Jan-10 03:00N 34°36' W 121°13'611.6
2018-Jan-10 02:30N 34°31' W 121°10'611.3
2018-Jan-10 02:00N 34°29' W 121°03'510.8
2018-Jan-10 01:30N 34°27' W 120°57'510.7
2018-Jan-10 01:00N 34°26' W 120°51'610.4
2018-Jan-10 00:28N 34°24' W 120°44'511.0
2018-Jan-10 00:00N 34°23' W 120°38'510.7
2018-Jan-09 23:30N 34°22' W 120°32'712.3
2018-Jan-09 22:55N 34°20' W 120°24'613.1
2018-Jan-09 22:28N 34°18' W 120°17'813.6
2018-Jan-09 21:52N 34°16' W 120°07'513.6
2018-Jan-09 21:29N 34°15' W 120°01'713.4
2018-Jan-09 20:59N 34°13' W 119°53'713.1
2018-Jan-09 20:28N 34°11' W 119°46'613.1
2018-Jan-09 20:00N 34°10' W 119°38'711.6
2018-Jan-09 19:24N 34°08' W 119°30'511.5
2018-Jan-09 18:58N 34°07' W 119°24'611.5
2018-Jan-09 18:30N 34°05' W 119°18'611.3
2018-Jan-09 18:00N 34°02' W 119°12'611.5
2018-Jan-09 17:28N 33°59' W 119°06'511.5
2018-Jan-09 17:00N 33°57' W 118°60'611.5
2018-Jan-09 16:30N 33°54' W 118°54'611.6
2018-Jan-09 16:00N 33°51' W 118°48'511.2
2018-Jan-09 15:30N 33°49' W 118°42'611.0
2018-Jan-09 14:59N 33°46' W 118°36'511.2
2018-Jan-09 14:30N 33°43' W 118°30'611.5
2018-Jan-09 13:58N 33°40' W 118°24'8 0.2
2018-Jan-08 03:07N 33°45' W 118°16'5 0.3
2018-Jan-07 12:49N 33°41' W 118°14'3 9.2
2018-Jan-07 12:30N 33°38' W 118°15'3 6.9
2018-Jan-07 12:00N 33°36' W 118°18'4 8.0
2018-Jan-07 11:30N 33°36' W 118°23'5 9.7
2018-Jan-07 11:00N 33°36' W 118°29'510.1
2018-Jan-07 10:30N 33°36' W 118°35'510.0
2018-Jan-07 10:00N 33°37' W 118°41'5 9.9
2018-Jan-07 09:30N 33°37' W 118°47'510.0
2018-Jan-07 09:00N 33°37' W 118°53'5 9.9
2018-Jan-07 08:30N 33°37' W 118°59'510.1
2018-Jan-07 08:00N 33°37' W 119°05'510.4
2018-Jan-07 07:29N 33°37' W 119°12'510.2
2018-Jan-07 07:00N 33°37' W 119°17'510.2
2018-Jan-07 06:30N 33°37' W 119°24'611.3
2018-Jan-07 06:00N 33°37' W 119°30'714.6
2018-Jan-07 05:30N 33°37' W 119°39'815.7
2018-Jan-07 05:01N 33°37' W 119°48'815.9
2018-Jan-07 04:29N 33°37' W 119°58'816.4
2018-Jan-07 04:00N 33°37' W 120°08'816.1
2018-Jan-07 03:31N 33°37' W 120°17'815.5
2018-Jan-07 03:00N 33°37' W 120°27'611.9
2018-Jan-07 02:30N 33°37' W 120°34'714.1
2018-Jan-07 02:00N 33°37' W 120°43'816.4
2018-Jan-07 01:31N 33°37' W 120°52'1716.6
2018-Jan-07 00:31N 33°37' W 121°12'816.2
2018-Jan-07 00:00N 33°37' W 121°22'816.1
2018-Jan-06 23:30N 33°37' W 121°32'816.5
2018-Jan-06 23:00N 33°37' W 121°42'5117.0
2018-Jan-06 20:02N 33°38' W 122°42'1516.9
2018-Jan-06 19:09N 33°38' W 123°00'317.0
2018-Jan-06 19:00N 33°38' W 123°03'816.6
2018-Jan-06 18:29N 33°38' W 123°14'1616.8
2018-Jan-06 17:32N 33°38' W 123°33'55118.6
2018-Jan-05 12:00N 38°00' W 133°30'   300 / 201020.010.8 11.0 9.2

Dump ship's entire track history